createdAt,value
2022-08-20T00:02:09.132Z,101807.44
2022-08-20T00:04:39.618Z,101802.03
2022-08-20T00:07:07.244Z,101792.13
2022-08-20T00:09:36.690Z,101798.06
2022-08-20T00:12:06.057Z,101803.44
2022-08-20T00:14:33.963Z,101804.84
2022-08-20T00:17:01.372Z,101807.13
2022-08-20T00:19:27.918Z,101803.19
2022-08-20T00:21:58.101Z,101808.56
2022-08-20T00:24:25.728Z,101799.06
2022-08-20T00:26:52.933Z,101799.91
2022-08-20T00:29:20.212Z,101803.44
2022-08-20T00:31:46.966Z,101800.63
2022-08-20T00:34:13.393Z,101799.91
2022-08-20T00:36:39.903Z,101799.78
2022-08-20T00:39:06.371Z,101800.19
2022-08-20T00:41:32.947Z,101807.41
2022-08-20T00:44:16.532Z,101804.31
2022-08-20T00:46:46.754Z,101801.56
2022-08-20T00:49:28.618Z,101805.97
2022-08-20T00:52:07.039Z,101807.66
2022-08-20T00:54:57.363Z,101814.03
2022-08-20T00:58:00.568Z,101820.00
2022-08-20T01:00:33.061Z,101821.28
2022-08-20T01:03:00.597Z,101815.19
2022-08-20T01:05:29.650Z,101816.75
2022-08-20T01:07:58.347Z,101810.09
2022-08-20T01:10:29.728Z,101811.50
2022-08-20T01:12:59.346Z,101807.97
2022-08-20T01:15:31.122Z,101817.03
2022-08-20T01:18:00.172Z,101816.91
2022-08-20T01:20:31.926Z,101814.34
2022-08-20T01:23:30.605Z,101816.91
2022-08-20T01:26:00.473Z,101821.28
2022-08-20T01:28:50.243Z,101810.94
2022-08-20T01:31:20.268Z,101814.63
2022-08-20T01:33:48.944Z,101812.63
2022-08-20T01:36:16.715Z,101811.91
2022-08-20T01:38:53.858Z,101803.59
2022-08-20T01:41:33.135Z,101801.44
2022-08-20T01:43:59.956Z,101796.16
2022-08-20T01:46:32.833Z,101810.47
2022-08-20T01:49:23.128Z,101810.41
2022-08-20T01:51:52.693Z,101808.00
2022-08-20T01:54:20.281Z,101812.38
2022-08-20T01:56:57.824Z,101818.88
2022-08-20T01:59:24.998Z,101815.47
2022-08-20T02:01:58.197Z,101819.19
2022-08-20T02:04:26.763Z,101814.66
2022-08-20T02:06:58.212Z,101814.94
2022-08-20T02:09:42.037Z,101819.47
2022-08-20T02:12:13.235Z,101817.19
2022-08-20T02:14:51.351Z,101825.81
2022-08-20T02:17:21.083Z,101825.69
2022-08-20T02:19:52.468Z,101831.78
2022-08-20T02:22:29.589Z,101826.69
2022-08-20T02:24:56.360Z,101819.00
2022-08-20T02:27:23.671Z,101824.84
2022-08-20T02:29:51.282Z,101822.28
2022-08-20T02:32:32.508Z,101824.56
2022-08-20T02:35:05.861Z,101824.69
2022-08-20T02:37:32.505Z,101821.88
2022-08-20T02:39:59.187Z,101828.97
2022-08-20T02:42:26.470Z,101825.56
2022-08-20T02:44:54.074Z,101820.31
2022-08-20T02:47:23.578Z,101820.72
2022-08-20T02:49:50.134Z,101809.25
2022-08-20T02:52:16.659Z,101808.66
2022-08-20T02:54:43.149Z,101813.78
2022-08-20T02:57:20.298Z,101810.94
2022-08-20T02:59:48.138Z,101817.56
2022-08-20T03:02:15.713Z,101820.53
2022-08-20T03:04:42.911Z,101806.66
2022-08-20T03:07:10.902Z,101811.44
2022-08-20T03:09:38.398Z,101812.56
2022-08-20T03:12:06.778Z,101811.13
2022-08-20T03:14:34.070Z,101818.31
2022-08-20T03:17:02.276Z,101823.94
2022-08-20T03:19:29.861Z,101823.56
2022-08-20T03:21:56.341Z,101827.34
2022-08-20T03:24:23.053Z,101834.31
2022-08-20T03:26:49.786Z,101829.94
2022-08-20T03:29:16.342Z,101832.47
2022-08-20T03:31:42.800Z,101834.63
2022-08-20T03:34:16.831Z,101829.41
2022-08-20T03:36:43.397Z,101829.78
2022-08-20T03:39:13.084Z,101840.53
2022-08-20T03:41:40.046Z,101832.97
2022-08-20T03:44:06.944Z,101833.09
2022-08-20T03:46:34.171Z,101828.00
2022-08-20T03:49:00.962Z,101830.41
2022-08-20T03:51:31.691Z,101832.38
2022-08-20T03:54:12.277Z,101840.00
2022-08-20T03:56:41.479Z,101832.19
2022-08-20T03:59:08.278Z,101836.97
2022-08-20T04:01:44.425Z,101832.97
2022-08-20T04:04:12.899Z,101833.69
2022-08-20T04:06:39.994Z,101837.38
2022-08-20T04:09:07.041Z,101842.13
2022-08-20T04:11:37.541Z,101839.94
2022-08-20T04:14:04.813Z,101850.81
2022-08-20T04:16:33.043Z,101845.06
2022-08-20T04:19:02.449Z,101846.03
2022-08-20T04:21:33.523Z,101850.56
2022-08-20T04:24:02.344Z,101851.78
2022-08-20T04:26:29.127Z,101850.69
2022-08-20T04:28:55.926Z,101853.63
2022-08-20T04:31:33.442Z,101842.44
2022-08-20T04:34:04.569Z,101850.09
2022-08-20T04:36:35.244Z,101852.78
2022-08-20T04:39:01.713Z,101860.84
2022-08-20T04:41:28.380Z,101850.09
2022-08-20T04:43:56.335Z,101851.34
2022-08-20T04:46:25.933Z,101857.81
2022-08-20T04:48:52.805Z,101873.44
2022-08-20T04:51:22.720Z,101876.25
2022-08-20T04:53:51.862Z,101865.06
2022-08-20T04:56:23.544Z,101871.53
2022-08-20T04:58:51.451Z,101878.72
2022-08-20T05:01:18.285Z,101872.25
2022-08-20T05:03:47.826Z,101877.88
2022-08-20T05:06:16.129Z,101875.19
2022-08-20T05:08:43.144Z,101870.56
2022-08-20T05:11:34.299Z,101872.75
2022-08-20T05:14:01.031Z,101875.81
2022-08-20T05:16:31.734Z,101882.91
2022-08-20T05:18:58.482Z,101886.44
2022-08-20T05:21:24.918Z,101884.72
2022-08-20T05:23:51.600Z,101890.22
2022-08-20T05:26:19.939Z,101896.56
2022-08-20T05:28:57.570Z,101892.44
2022-08-20T05:31:31.344Z,101897.78
2022-08-20T05:34:01.576Z,101888.66
2022-08-20T05:36:28.213Z,101896.44
2022-08-20T05:38:54.795Z,101901.44
2022-08-20T05:41:28.672Z,101895.44
2022-08-20T05:43:56.784Z,101898.25
2022-08-20T05:46:23.357Z,101898.63
2022-08-20T05:48:49.894Z,101911.31
2022-08-20T05:51:16.358Z,101904.38
2022-08-20T05:53:43.866Z,101917.66
2022-08-20T05:56:13.366Z,101905.94
2022-08-20T05:58:42.669Z,101911.66
2022-08-20T06:01:11.578Z,101915.44
2022-08-20T06:03:56.937Z,101905.19
2022-08-20T06:06:44.854Z,101916.63
2022-08-20T06:09:13.130Z,101916.97
2022-08-20T06:11:42.177Z,101911.06
2022-08-20T06:14:08.683Z,101911.06
2022-08-20T06:16:37.260Z,101910.53
2022-08-20T06:19:05.111Z,101914.19
2022-08-20T06:21:31.803Z,101907.91
2022-08-20T06:23:59.672Z,101913.59
2022-08-20T06:26:29.753Z,101909.41
2022-08-20T06:29:04.293Z,101905.06
2022-08-20T06:31:30.829Z,101909.25
2022-08-20T06:33:57.320Z,101913.81
2022-08-20T06:36:25.028Z,101910.25
2022-08-20T06:38:51.706Z,101925.72
2022-08-20T06:41:18.476Z,101911.75
2022-08-20T06:43:45.116Z,101920.84
2022-08-20T06:46:12.846Z,101921.84
2022-08-20T06:48:39.624Z,101922.28
2022-08-20T06:51:06.738Z,101923.03
2022-08-20T06:53:33.342Z,101915.53
2022-08-20T06:55:59.842Z,101919.09
2022-08-20T06:58:37.705Z,101919.16
2022-08-20T07:01:11.391Z,101920.88
2022-08-20T07:03:55.689Z,101926.84
2022-08-20T07:06:25.867Z,101920.34
2022-08-20T07:08:53.667Z,101925.31
2022-08-20T07:11:26.335Z,101927.88
2022-08-20T07:13:54.634Z,101927.72
2022-08-20T07:16:21.089Z,101935.38
2022-08-20T07:18:49.882Z,101940.91
2022-08-20T07:21:17.371Z,101943.78
2022-08-20T07:23:43.933Z,101944.91
2022-08-20T07:26:17.030Z,101935.28
2022-08-20T07:28:43.623Z,101937.53
2022-08-20T07:31:28.787Z,101936.38
2022-08-20T07:33:58.152Z,101938.50
2022-08-20T07:36:26.972Z,101940.78
2022-08-20T07:38:54.625Z,101950.84
2022-08-20T07:41:23.486Z,101942.47
2022-08-20T07:43:50.143Z,101946.88
2022-08-20T07:46:20.808Z,101957.97
2022-08-20T07:48:49.824Z,101950.56
2022-08-20T07:51:19.158Z,101945.59
2022-08-20T07:53:48.729Z,101959.63
2022-08-20T07:56:19.312Z,101964.31
2022-08-20T07:58:51.174Z,101960.94
2022-08-20T08:01:20.273Z,101965.47
2022-08-20T08:03:50.017Z,101963.94
2022-08-20T08:06:28.610Z,101967.88
2022-08-20T08:09:06.897Z,101969.44
2022-08-20T08:11:34.836Z,101973.13
2022-08-20T08:14:02.854Z,101975.69
2022-08-20T08:16:32.548Z,101973.56
2022-08-20T08:19:01.983Z,101975.41
2022-08-20T08:21:31.742Z,101976.25
2022-08-20T08:23:58.446Z,101971.41
2022-08-20T08:26:26.248Z,101963.06
2022-08-20T08:28:52.788Z,101965.47
2022-08-20T08:31:19.254Z,101975.97
2022-08-20T08:33:45.964Z,101969.44
2022-08-20T08:36:15.195Z,101970.84
2022-08-20T08:38:44.766Z,101965.75
2022-08-20T08:41:20.394Z,101960.50
2022-08-20T08:43:55.572Z,101970.56
2022-08-20T08:46:28.028Z,101974.38
2022-08-20T08:48:57.904Z,101976.94
2022-08-20T08:51:37.243Z,101975.81
2022-08-20T08:54:08.321Z,101982.47
2022-08-20T08:56:35.944Z,101983.34
2022-08-20T08:59:04.359Z,101993.44
2022-08-20T09:01:54.948Z,102001.22
2022-08-20T09:04:32.553Z,101998.09
2022-08-20T09:06:59.992Z,102005.03
2022-08-20T09:09:33.842Z,102000.91
2022-08-20T09:12:25.732Z,101998.47
2022-08-20T09:14:52.181Z,101998.47
2022-08-20T09:17:21.525Z,101995.28
2022-08-20T09:19:48.093Z,102002.25
2022-08-20T09:22:25.538Z,102001.94
2022-08-20T09:24:52.233Z,101992.69
2022-08-20T09:27:19.310Z,101981.59
2022-08-20T09:29:46.057Z,101981.59
2022-08-20T09:32:21.580Z,101984.88
2022-08-20T09:35:12.548Z,101986.13
2022-08-20T09:37:41.275Z,101986.28
2022-08-20T09:40:09.129Z,101979.78
2022-08-20T09:42:41.962Z,101971.09
2022-08-20T09:45:11.730Z,101992.97
2022-08-20T09:48:10.222Z,101982.28
2022-08-20T09:50:30.955Z,101978.34
2022-08-20T09:53:00.944Z,101978.75
2022-08-20T09:55:35.800Z,101981.94
2022-08-20T09:58:11.458Z,101982.09
2022-08-20T10:00:37.967Z,101977.84
2022-08-20T10:03:04.425Z,101987.50
2022-08-20T10:05:31.641Z,101973.59
2022-08-20T10:07:58.334Z,101978.69
2022-08-20T10:10:25.426Z,101977.25
2022-08-20T10:12:55.178Z,101973.09
2022-08-20T10:15:21.784Z,101980.47
2022-08-20T10:17:51.052Z,101979.63
2022-08-20T10:20:19.016Z,101976.22
2022-08-20T10:22:45.678Z,101976.03
2022-08-20T10:25:12.749Z,101977.81
2022-08-20T10:27:41.290Z,101975.63
2022-08-20T10:30:08.461Z,101969.34
2022-08-20T10:32:35.194Z,101977.00
2022-08-20T10:35:02.062Z,101971.03
2022-08-20T10:37:28.519Z,101970.28
2022-08-20T10:39:57.953Z,101965.06
2022-08-20T10:42:24.625Z,101970.69
2022-08-20T10:44:51.126Z,101976.53
2022-08-20T10:47:27.206Z,101973.34
2022-08-20T10:49:57.814Z,101978.47
2022-08-20T10:52:25.662Z,101980.41
2022-08-20T10:54:52.637Z,101966.75
2022-08-20T10:57:27.610Z,101975.78
2022-08-20T10:59:56.641Z,101968.00
2022-08-20T11:02:24.453Z,101961.34
2022-08-20T11:04:51.897Z,101968.34
2022-08-20T11:07:49.909Z,101977.28
2022-08-20T11:10:14.921Z,101972.66
2022-08-20T11:12:42.104Z,101975.88
2022-08-20T11:15:13.136Z,101976.28
2022-08-20T11:17:44.028Z,101973.06
2022-08-20T11:20:16.384Z,101977.63
2022-08-20T11:22:42.847Z,101973.34
2022-08-20T11:25:13.273Z,101973.38
2022-08-20T11:27:42.923Z,101971.53
2022-08-20T11:30:18.212Z,101985.78
2022-08-20T11:32:45.023Z,101968.75
2022-08-20T11:35:40.466Z,101977.75
2022-08-20T11:37:59.298Z,101972.97
2022-08-20T11:40:27.874Z,101980.13
2022-08-20T11:43:13.685Z,101977.31
2022-08-20T11:45:41.318Z,101978.81
2022-08-20T11:48:08.041Z,101974.59
2022-08-20T11:50:34.482Z,101977.78
2022-08-20T11:53:01.492Z,101976.81
2022-08-20T11:55:30.094Z,101974.59
2022-08-20T11:57:57.381Z,101978.97
2022-08-20T12:00:32.172Z,101982.34
2022-08-20T12:03:08.697Z,101977.44
2022-08-20T12:05:37.778Z,101969.50
2022-08-20T12:08:05.037Z,101972.13
2022-08-20T12:10:35.454Z,101966.84
2022-08-20T12:13:04.622Z,101964.94
2022-08-20T12:15:32.638Z,101972.66
2022-08-20T12:17:59.305Z,101967.00
2022-08-20T12:20:25.971Z,101963.53
2022-08-20T12:22:54.029Z,101968.69
2022-08-20T12:25:20.941Z,101961.34
2022-08-20T12:27:47.733Z,101970.47
2022-08-20T12:30:19.900Z,101974.28
2022-08-20T12:32:47.156Z,101971.94
2022-08-20T12:35:15.659Z,101972.34
2022-08-20T12:37:42.981Z,101963.19
2022-08-20T12:40:15.873Z,101958.53
2022-08-20T12:42:42.542Z,101954.16
2022-08-20T12:45:09.770Z,101964.47
2022-08-20T12:47:40.701Z,101956.84
2022-08-20T12:50:24.720Z,101950.25
2022-08-20T12:52:53.123Z,101952.28
2022-08-20T12:55:20.370Z,101954.50
2022-08-20T12:57:50.456Z,101951.94
2022-08-20T13:00:33.734Z,101952.78
2022-08-20T13:03:02.141Z,101950.84
2022-08-20T13:05:30.075Z,101945.16
2022-08-20T13:07:57.699Z,101948.44
2022-08-20T13:10:36.185Z,101946.44
2022-08-20T13:13:03.560Z,101948.03
2022-08-20T13:15:31.832Z,101942.88
2022-08-20T13:18:01.563Z,101951.53
2022-08-20T13:20:33.990Z,101952.91
2022-08-20T13:23:01.619Z,101936.97
2022-08-20T13:25:28.119Z,101943.38
2022-08-20T13:27:57.870Z,101947.56
2022-08-20T13:30:24.952Z,101946.03
2022-08-20T13:32:51.643Z,101937.88
2022-08-20T13:35:19.384Z,101945.69
2022-08-20T13:37:46.084Z,101943.81
2022-08-20T13:40:12.693Z,101941.09
2022-08-20T13:42:41.881Z,101943.38
2022-08-20T13:45:10.934Z,101938.09
2022-08-20T13:47:40.286Z,101945.78
2022-08-20T13:50:15.180Z,101937.69
2022-08-20T13:52:42.992Z,101940.75
2022-08-20T13:55:12.685Z,101944.97
2022-08-20T13:57:40.632Z,101936.22
2022-08-20T14:00:11.128Z,101928.16
2022-08-20T14:02:37.954Z,101921.72
2022-08-20T14:05:04.641Z,101929.69
2022-08-20T14:07:32.768Z,101927.63
2022-08-20T14:10:07.647Z,101935.16
2022-08-20T14:12:34.342Z,101935.06
2022-08-20T14:15:00.978Z,101928.84
2022-08-20T14:17:30.748Z,101925.72
2022-08-20T14:20:02.079Z,101927.38
2022-08-20T14:22:29.460Z,101936.28
2022-08-20T14:24:56.710Z,101933.59
2022-08-20T14:27:27.828Z,101932.25
2022-08-20T14:29:58.107Z,101933.75
2022-08-20T14:32:24.609Z,101927.47
2022-08-20T14:34:51.056Z,101940.16
2022-08-20T14:37:28.563Z,101938.56
2022-08-20T14:39:57.116Z,101929.91
2022-08-20T14:42:26.520Z,101931.19
2022-08-20T14:44:53.540Z,101925.94
2022-08-20T14:47:29.546Z,101926.06
2022-08-20T14:50:02.628Z,101928.16
2022-08-20T14:52:32.913Z,101933.75
2022-08-20T14:54:59.377Z,101934.75
2022-08-20T14:57:28.906Z,101931.06
2022-08-20T14:59:55.470Z,101932.22
2022-08-20T15:02:22.396Z,101929.84
2022-08-20T15:04:54.225Z,101932.50
2022-08-20T15:07:27.421Z,101933.47
2022-08-20T15:09:55.167Z,101937.41
2022-08-20T15:12:22.142Z,101944.50
2022-08-20T15:14:49.057Z,101939.44
2022-08-20T15:17:23.616Z,101943.63
2022-08-20T15:19:50.366Z,101947.31
2022-08-20T15:22:17.849Z,101947.44
2022-08-20T15:24:44.623Z,101952.44
2022-08-20T15:27:22.745Z,101948.69
2022-08-20T15:29:51.065Z,101951.75
2022-08-20T15:32:18.402Z,101945.53
2022-08-20T15:34:45.107Z,101960.53
2022-08-20T15:37:23.201Z,101961.75
2022-08-20T15:39:51.589Z,101951.91
2022-08-20T15:42:20.280Z,101956.34
2022-08-20T15:44:47.345Z,101950.84
2022-08-20T15:47:16.770Z,101954.09
2022-08-20T15:49:44.318Z,101955.44
2022-08-20T15:52:13.961Z,101961.88
2022-08-20T15:54:44.421Z,101958.88
2022-08-20T15:57:48.440Z,101958.19
2022-08-20T16:00:20.077Z,101957.25
2022-08-20T16:03:13.498Z,101959.38
2022-08-20T16:06:01.141Z,101970.56
2022-08-20T16:08:42.051Z,101971.78
2022-08-20T16:11:38.383Z,101976.44
2022-08-20T16:14:15.836Z,101978.75
2022-08-20T16:16:50.946Z,101985.88
2022-08-20T16:19:50.952Z,101974.53
2022-08-20T16:22:19.304Z,101979.78
2022-08-20T16:24:46.094Z,101969.44
2022-08-20T16:27:42.106Z,101969.28
2022-08-20T16:30:20.948Z,101968.03
2022-08-20T16:33:05.724Z,101971.69
2022-08-20T16:36:03.705Z,101970.25
2022-08-20T16:38:45.836Z,101974.38
2022-08-20T16:41:25.793Z,101968.28
2022-08-20T16:43:56.077Z,101971.06
2022-08-20T16:46:34.996Z,101977.06
2022-08-20T16:49:13.349Z,101975.38
2022-08-20T16:51:43.230Z,101964.69
2022-08-20T16:54:11.901Z,101969.25
2022-08-20T16:56:41.792Z,101969.00
2022-08-20T16:59:12.639Z,101971.72
2022-08-20T17:02:01.556Z,101964.22
2022-08-20T17:04:30.884Z,101972.91
2022-08-20T17:07:02.474Z,101973.16
2022-08-20T17:09:35.978Z,101967.06
2022-08-20T17:12:16.623Z,101972.47
2022-08-20T17:14:48.437Z,101975.22
2022-08-20T17:17:21.232Z,101975.47
2022-08-20T17:19:53.586Z,101967.53
2022-08-20T17:22:21.240Z,101970.09
2022-08-20T17:24:48.493Z,101968.38
2022-08-20T17:27:36.438Z,101969.69
2022-08-20T17:30:25.338Z,101967.91
2022-08-20T17:33:05.534Z,101965.78
2022-08-20T17:35:43.231Z,101969.53
2022-08-20T17:38:27.574Z,101968.81
2022-08-20T17:41:00.276Z,101975.94
2022-08-20T17:43:33.292Z,101981.50
2022-08-20T17:46:06.503Z,101982.22
2022-08-20T17:48:46.921Z,101981.50
2022-08-20T17:51:22.049Z,101986.59
2022-08-20T17:53:55.093Z,101986.19
2022-08-20T17:56:28.846Z,101986.91
2022-08-20T17:59:24.056Z,101977.53
2022-08-20T18:02:07.891Z,101976.97
2022-08-20T18:04:34.382Z,101977.69
2022-08-20T18:07:14.392Z,101972.00
2022-08-20T18:10:12.200Z,101970.41
2022-08-20T18:13:01.624Z,101975.66
2022-08-20T18:16:01.599Z,101976.50
2022-08-20T18:19:10.185Z,101978.50
2022-08-20T18:21:55.885Z,101971.53
2022-08-20T18:24:57.779Z,101977.63
2022-08-20T18:27:28.004Z,101981.53
2022-08-20T18:29:59.414Z,101982.38
2022-08-20T18:32:36.592Z,101980.38
2022-08-20T18:35:22.224Z,101977.47
2022-08-20T18:37:48.733Z,101986.06
2022-08-20T18:40:30.544Z,101984.28
2022-08-20T18:43:10.733Z,101972.66
2022-08-20T18:45:37.421Z,101989.47
2022-08-20T18:48:07.737Z,101987.31
2022-08-20T18:50:39.927Z,101993.81
2022-08-20T18:53:24.597Z,101997.63
2022-08-20T18:56:11.679Z,101999.97
2022-08-20T18:58:59.382Z,101999.75
2022-08-20T19:01:25.896Z,102001.56
2022-08-20T19:03:55.901Z,102001.84
2022-08-20T19:06:31.165Z,102002.94
2022-08-20T19:09:00.502Z,102004.34
2022-08-20T19:11:41.893Z,102004.25
2022-08-20T19:14:11.473Z,102008.66
2022-08-20T19:16:47.720Z,102002.34
2022-08-20T19:19:20.546Z,101992.00
2022-08-20T19:21:47.338Z,102001.03
2022-08-20T19:24:23.577Z,102001.28
2022-08-20T19:27:04.633Z,101999.84
2022-08-20T19:29:37.293Z,101997.69
2022-08-20T19:32:07.725Z,101989.88
2022-08-20T19:34:35.496Z,101995.97
2022-08-20T19:37:27.646Z,101992.31
2022-08-20T19:39:52.008Z,101989.41
2022-08-20T19:42:24.005Z,101989.63
2022-08-20T19:45:00.947Z,101989.28
2022-08-20T19:47:31.924Z,101987.84
2022-08-20T19:50:29.512Z,101992.13
2022-08-20T19:53:16.402Z,101986.25
2022-08-20T19:55:48.357Z,101991.41
2022-08-20T19:58:26.339Z,101995.91
2022-08-20T20:00:55.377Z,101989.81
2022-08-20T20:03:33.407Z,101994.09
2022-08-20T20:06:20.462Z,101988.09
2022-08-20T20:08:56.852Z,101982.97
2022-08-20T20:11:32.939Z,101992.50
2022-08-20T20:14:05.411Z,101982.66
2022-08-20T20:16:43.672Z,101981.81
2022-08-20T20:19:29.881Z,101980.38
2022-08-20T20:22:13.367Z,101980.22
2022-08-20T20:24:56.530Z,101984.75
2022-08-20T20:27:26.531Z,101984.63
2022-08-20T20:30:30.681Z,101982.19
2022-08-20T20:32:59.608Z,101979.38
2022-08-20T20:35:32.247Z,101979.25
2022-08-20T20:38:01.039Z,101979.13
2022-08-20T20:40:33.913Z,101976.81
2022-08-20T20:43:06.547Z,101965.38
2022-08-20T20:45:41.793Z,101970.84
2022-08-20T20:48:39.656Z,101981.09
2022-08-20T20:51:18.224Z,101978.53
2022-08-20T20:53:54.311Z,101969.75
2022-08-20T20:56:28.685Z,101972.94
2022-08-20T20:59:01.255Z,101974.25
2022-08-20T21:01:49.504Z,101970.47
2022-08-20T21:04:22.241Z,101977.31
2022-08-20T21:06:50.093Z,101975.59
2022-08-20T21:09:18.947Z,101974.63
2022-08-20T21:11:45.654Z,101968.66
2022-08-20T21:14:12.522Z,101975.00
2022-08-20T21:16:41.561Z,101974.38
2022-08-20T21:19:09.943Z,101975.34
2022-08-20T21:21:38.189Z,101978.16
2022-08-20T21:24:05.904Z,101971.22
2022-08-20T21:26:32.998Z,101974.22
2022-08-20T21:28:59.772Z,101972.16
2022-08-20T21:31:32.317Z,101973.44
2022-08-20T21:33:58.835Z,101973.69
2022-08-20T21:36:25.405Z,101959.19
2022-08-20T21:38:52.022Z,101972.09
2022-08-20T21:41:18.981Z,101970.97
2022-08-20T21:44:00.707Z,101969.41
2022-08-20T21:46:28.665Z,101969.75
2022-08-20T21:48:56.897Z,101962.31
2022-08-20T21:51:55.842Z,101960.59
2022-08-20T21:54:22.689Z,101958.63
2022-08-20T21:56:59.155Z,101974.59
2022-08-20T21:59:25.946Z,101968.72
2022-08-20T22:01:52.956Z,101973.97
2022-08-20T22:04:20.005Z,101977.50
2022-08-20T22:06:47.112Z,101967.00
2022-08-20T22:09:14.399Z,101966.16
2022-08-20T22:11:41.825Z,101962.63
2022-08-20T22:14:10.303Z,101956.75
2022-08-20T22:16:36.975Z,101966.41
2022-08-20T22:19:03.665Z,101960.53
2022-08-20T22:21:34.618Z,101958.09
2022-08-20T22:24:03.983Z,101964.19
2022-08-20T22:26:32.865Z,101954.56
2022-08-20T22:28:59.837Z,101955.28
2022-08-20T22:31:30.660Z,101949.44
2022-08-20T22:33:58.017Z,101944.50
2022-08-20T22:36:27.018Z,101943.66
2022-08-20T22:38:55.029Z,101961.66
2022-08-20T22:41:22.654Z,101950.31
2022-08-20T22:43:56.414Z,101936.31
2022-08-20T22:46:30.996Z,101935.34
2022-08-20T22:48:57.773Z,101938.38
2022-08-20T22:51:32.089Z,101945.78
2022-08-20T22:54:03.295Z,101941.41
2022-08-20T22:56:30.114Z,101928.31
2022-08-20T22:58:59.090Z,101931.22
2022-08-20T23:01:27.039Z,101943.03
2022-08-20T23:03:54.281Z,101938.88
2022-08-20T23:06:23.353Z,101931.28
2022-08-20T23:08:50.065Z,101944.56
2022-08-20T23:11:16.814Z,101932.50
2022-08-20T23:13:45.663Z,101930.56
2022-08-20T23:16:12.672Z,101941.38
2022-08-20T23:18:40.562Z,101935.38
2022-08-20T23:21:07.512Z,101930.28
2022-08-20T23:23:34.224Z,101929.41
2022-08-20T23:26:01.280Z,101916.25
2022-08-20T23:28:28.041Z,101926.50
2022-08-20T23:30:54.777Z,101916.88
2022-08-20T23:33:21.345Z,101923.31
2022-08-20T23:35:48.120Z,101921.72
2022-08-20T23:38:15.289Z,101918.41
2022-08-20T23:40:42.464Z,101908.38
2022-08-20T23:43:09.804Z,101914.78
2022-08-20T23:45:39.717Z,101896.84
2022-08-20T23:48:07.901Z,101911.09
2022-08-20T23:50:35.899Z,101912.50
2022-08-20T23:53:06.096Z,101916.13
2022-08-20T23:55:33.033Z,101920.41
2022-08-20T23:58:02.238Z,101918.69
